sensor_id;sensor_type;location;lat;lon;timestamp;P1;durP1;ratioP1;P2;durP2;ratioP2
39050;SDS011;24805;55.852;37.644;2023-07-08T00:02:37;11.20;;;9.98;;
39050;SDS011;24805;55.852;37.644;2023-07-08T00:07:39;11.52;;;10.10;;
39050;SDS011;24805;55.852;37.644;2023-07-08T00:12:43;11.85;;;10.15;;
39050;SDS011;24805;55.852;37.644;2023-07-08T00:17:47;11.55;;;10.25;;
39050;SDS011;24805;55.852;37.644;2023-07-08T00:22:49;11.18;;;10.02;;
39050;SDS011;24805;55.852;37.644;2023-07-08T00:27:54;10.93;;;9.75;;
39050;SDS011;24805;55.852;37.644;2023-07-08T00:32:56;10.57;;;9.45;;
39050;SDS011;24805;55.852;37.644;2023-07-08T00:38:00;11.60;;;10.00;;
39050;SDS011;24805;55.852;37.644;2023-07-08T00:43:03;11.85;;;9.70;;
39050;SDS011;24805;55.852;37.644;2023-07-08T00:48:11;12.70;;;10.40;;
39050;SDS011;24805;55.852;37.644;2023-07-08T00:53:23;12.27;;;11.05;;
39050;SDS011;24805;55.852;37.644;2023-07-08T00:58:31;11.00;;;9.85;;
39050;SDS011;24805;55.852;37.644;2023-07-08T01:03:39;11.43;;;10.18;;
39050;SDS011;24805;55.852;37.644;2023-07-08T01:08:47;14.18;;;10.90;;
39050;SDS011;24805;55.852;37.644;2023-07-08T01:13:54;11.35;;;10.00;;
39050;SDS011;24805;55.852;37.644;2023-07-08T01:18:57;11.75;;;9.95;;
39050;SDS011;24805;55.852;37.644;2023-07-08T01:24:01;11.13;;;10.00;;
39050;SDS011;24805;55.852;37.644;2023-07-08T01:29:06;10.98;;;9.80;;
39050;SDS011;24805;55.852;37.644;2023-07-08T01:34:11;11.50;;;10.30;;
39050;SDS011;24805;55.852;37.644;2023-07-08T01:39:15;13.48;;;10.70;;
39050;SDS011;24805;55.852;37.644;2023-07-08T01:44:30;12.05;;;10.63;;
39050;SDS011;24805;55.852;37.644;2023-07-08T01:49:34;10.73;;;9.50;;
39050;SDS011;24805;55.852;37.644;2023-07-08T01:54:38;12.38;;;11.13;;
39050;SDS011;24805;55.852;37.644;2023-07-08T01:59:41;12.80;;;10.88;;
39050;SDS011;24805;55.852;37.644;2023-07-08T02:04:43;13.20;;;10.98;;
39050;SDS011;24805;55.852;37.644;2023-07-08T02:09:47;12.27;;;10.52;;
39050;SDS011;24805;55.852;37.644;2023-07-08T02:14:49;13.23;;;11.27;;
39050;SDS011;24805;55.852;37.644;2023-07-08T02:19:51;12.75;;;11.40;;
39050;SDS011;24805;55.852;37.644;2023-07-08T02:24:53;15.13;;;12.23;;
39050;SDS011;24805;55.852;37.644;2023-07-08T02:29:56;15.88;;;13.48;;
39050;SDS011;24805;55.852;37.644;2023-07-08T02:34:58;13.85;;;12.40;;
39050;SDS011;24805;55.852;37.644;2023-07-08T02:40:00;12.77;;;11.48;;
39050;SDS011;24805;55.852;37.644;2023-07-08T02:45:05;12.88;;;11.40;;
39050;SDS011;24805;55.852;37.644;2023-07-08T02:50:08;13.45;;;11.52;;
39050;SDS011;24805;55.852;37.644;2023-07-08T02:55:11;13.50;;;11.65;;
39050;SDS011;24805;55.852;37.644;2023-07-08T03:00:13;13.50;;;12.05;;
39050;SDS011;24805;55.852;37.644;2023-07-08T03:05:16;12.50;;;11.15;;
39050;SDS011;24805;55.852;37.644;2023-07-08T03:10:18;12.40;;;11.20;;
39050;SDS011;24805;55.852;37.644;2023-07-08T03:15:21;12.77;;;11.48;;
39050;SDS011;24805;55.852;37.644;2023-07-08T03:20:23;16.00;;;11.05;;
39050;SDS011;24805;55.852;37.644;2023-07-08T03:25:25;13.18;;;11.25;;
39050;SDS011;24805;55.852;37.644;2023-07-08T03:30:29;14.30;;;11.77;;
39050;SDS011;24805;55.852;37.644;2023-07-08T03:35:31;13.55;;;11.02;;
39050;SDS011;24805;55.852;37.644;2023-07-08T03:40:34;12.00;;;10.77;;
39050;SDS011;24805;55.852;37.644;2023-07-08T03:45:36;13.32;;;10.93;;
39050;SDS011;24805;55.852;37.644;2023-07-08T03:50:39;12.05;;;9.80;;
39050;SDS011;24805;55.852;37.644;2023-07-08T03:55:42;13.82;;;10.43;;
39050;SDS011;24805;55.852;37.644;2023-07-08T04:00:44;12.88;;;9.35;;
39050;SDS011;24805;55.852;37.644;2023-07-08T04:05:46;12.02;;;8.80;;
39050;SDS011;24805;55.852;37.644;2023-07-08T04:10:48;11.27;;;9.18;;
39050;SDS011;24805;55.852;37.644;2023-07-08T04:15:56;9.52;;;8.52;;
39050;SDS011;24805;55.852;37.644;2023-07-08T04:21:02;11.23;;;8.90;;
39050;SDS011;24805;55.852;37.644;2023-07-08T04:26:07;11.70;;;8.88;;
39050;SDS011;24805;55.852;37.644;2023-07-08T04:31:10;8.98;;;8.07;;
39050;SDS011;24805;55.852;37.644;2023-07-08T04:36:13;11.05;;;8.95;;
39050;SDS011;24805;55.852;37.644;2023-07-08T04:41:16;12.52;;;8.82;;
39050;SDS011;24805;55.852;37.644;2023-07-08T04:51:41;9.55;;;8.40;;
39050;SDS011;24805;55.852;37.644;2023-07-08T04:56:44;9.20;;;8.13;;
39050;SDS011;24805;55.852;37.644;2023-07-08T05:01:48;9.35;;;8.20;;
39050;SDS011;24805;55.852;37.644;2023-07-08T05:06:51;9.40;;;8.40;;
39050;SDS011;24805;55.852;37.644;2023-07-08T05:11:53;8.80;;;7.90;;
39050;SDS011;24805;55.852;37.644;2023-07-08T05:16:56;9.50;;;7.68;;
39050;SDS011;24805;55.852;37.644;2023-07-08T05:21:59;9.27;;;8.27;;
39050;SDS011;24805;55.852;37.644;2023-07-08T05:27:01;9.23;;;7.80;;
39050;SDS011;24805;55.852;37.644;2023-07-08T05:32:03;10.88;;;7.30;;
39050;SDS011;24805;55.852;37.644;2023-07-08T05:37:06;10.25;;;7.85;;
39050;SDS011;24805;55.852;37.644;2023-07-08T05:42:09;9.38;;;7.80;;
39050;SDS011;24805;55.852;37.644;2023-07-08T05:47:11;11.82;;;7.78;;
39050;SDS011;24805;55.852;37.644;2023-07-08T05:52:14;8.02;;;7.20;;
39050;SDS011;24805;55.852;37.644;2023-07-08T05:57:16;10.73;;;7.57;;
39050;SDS011;24805;55.852;37.644;2023-07-08T06:02:18;10.27;;;7.53;;
39050;SDS011;24805;55.852;37.644;2023-07-08T06:07:27;8.65;;;7.63;;
39050;SDS011;24805;55.852;37.644;2023-07-08T06:12:29;10.35;;;7.50;;
39050;SDS011;24805;55.852;37.644;2023-07-08T06:17:32;9.52;;;6.75;;
39050;SDS011;24805;55.852;37.644;2023-07-08T06:22:34;8.45;;;7.57;;
39050;SDS011;24805;55.852;37.644;2023-07-08T06:27:39;9.55;;;7.20;;
39050;SDS011;24805;55.852;37.644;2023-07-08T06:32:41;8.57;;;7.28;;
39050;SDS011;24805;55.852;37.644;2023-07-08T06:37:44;8.23;;;7.35;;
39050;SDS011;24805;55.852;37.644;2023-07-08T06:42:46;9.43;;;7.07;;
39050;SDS011;24805;55.852;37.644;2023-07-08T06:48:04;8.55;;;6.82;;
39050;SDS011;24805;55.852;37.644;2023-07-08T06:53:07;8.55;;;7.25;;
39050;SDS011;24805;55.852;37.644;2023-07-08T06:58:09;11.60;;;7.10;;
39050;SDS011;24805;55.852;37.644;2023-07-08T07:03:11;8.05;;;7.25;;
39050;SDS011;24805;55.852;37.644;2023-07-08T07:08:14;10.63;;;6.72;;
39050;SDS011;24805;55.852;37.644;2023-07-08T07:13:16;7.72;;;6.93;;
39050;SDS011;24805;55.852;37.644;2023-07-08T07:18:19;8.32;;;7.53;;
39050;SDS011;24805;55.852;37.644;2023-07-08T07:23:21;8.07;;;6.47;;
39050;SDS011;24805;55.852;37.644;2023-07-08T07:28:23;8.82;;;7.07;;
39050;SDS011;24805;55.852;37.644;2023-07-08T07:33:26;8.50;;;7.22;;
39050;SDS011;24805;55.852;37.644;2023-07-08T07:38:30;9.05;;;7.32;;
39050;SDS011;24805;55.852;37.644;2023-07-08T07:43:35;8.32;;;6.50;;
39050;SDS011;24805;55.852;37.644;2023-07-08T07:48:37;8.23;;;7.30;;
39050;SDS011;24805;55.852;37.644;2023-07-08T07:53:39;7.60;;;6.53;;
39050;SDS011;24805;55.852;37.644;2023-07-08T07:58:42;8.25;;;6.80;;
39050;SDS011;24805;55.852;37.644;2023-07-08T08:03:44;9.10;;;6.30;;
39050;SDS011;24805;55.852;37.644;2023-07-08T08:08:46;9.27;;;5.97;;
39050;SDS011;24805;55.852;37.644;2023-07-08T08:13:49;9.45;;;5.72;;
39050;SDS011;24805;55.852;37.644;2023-07-08T08:18:53;6.65;;;5.25;;
39050;SDS011;24805;55.852;37.644;2023-07-08T08:23:55;9.07;;;5.15;;
39050;SDS011;24805;55.852;37.644;2023-07-08T08:28:57;5.47;;;4.75;;
39050;SDS011;24805;55.852;37.644;2023-07-08T08:33:59;5.80;;;4.97;;
39050;SDS011;24805;55.852;37.644;2023-07-08T08:39:02;5.55;;;4.60;;
39050;SDS011;24805;55.852;37.644;2023-07-08T08:44:04;5.40;;;4.90;;
39050;SDS011;24805;55.852;37.644;2023-07-08T08:54:19;5.85;;;5.07;;
39050;SDS011;24805;55.852;37.644;2023-07-08T08:59:42;5.70;;;5.00;;
39050;SDS011;24805;55.852;37.644;2023-07-08T09:04:45;5.95;;;4.00;;
39050;SDS011;24805;55.852;37.644;2023-07-08T09:14:54;6.63;;;4.32;;
39050;SDS011;24805;55.852;37.644;2023-07-08T09:30:48;5.47;;;4.07;;
39050;SDS011;24805;55.852;37.644;2023-07-08T09:35:55;8.55;;;4.10;;
39050;SDS011;24805;55.852;37.644;2023-07-08T09:40:57;6.50;;;4.38;;
39050;SDS011;24805;55.852;37.644;2023-07-08T09:45:59;4.13;;;3.72;;
39050;SDS011;24805;55.852;37.644;2023-07-08T09:51:02;3.78;;;3.25;;
39050;SDS011;24805;55.852;37.644;2023-07-08T09:56:05;4.30;;;3.90;;
39050;SDS011;24805;55.852;37.644;2023-07-08T10:01:17;3.45;;;2.90;;
39050;SDS011;24805;55.852;37.644;2023-07-08T10:06:26;4.95;;;3.10;;
39050;SDS011;24805;55.852;37.644;2023-07-08T10:11:37;3.10;;;2.80;;
39050;SDS011;24805;55.852;37.644;2023-07-08T10:16:43;2.50;;;2.30;;
39050;SDS011;24805;55.852;37.644;2023-07-08T10:21:55;2.47;;;2.15;;
39050;SDS011;24805;55.852;37.644;2023-07-08T10:32:36;2.88;;;1.95;;
39050;SDS011;24805;55.852;37.644;2023-07-08T10:48:52;4.25;;;1.98;;
39050;SDS011;24805;55.852;37.644;2023-07-08T11:04:59;3.10;;;2.10;;
39050;SDS011;24805;55.852;37.644;2023-07-08T11:16:24;1.92;;;1.60;;
39050;SDS011;24805;55.852;37.644;2023-07-08T11:21:41;2.40;;;1.60;;
39050;SDS011;24805;55.852;37.644;2023-07-08T11:32:11;3.50;;;1.67;;
39050;SDS011;24805;55.852;37.644;2023-07-08T11:37:15;4.75;;;1.52;;
39050;SDS011;24805;55.852;37.644;2023-07-08T11:47:44;9.32;;;5.07;;
39050;SDS011;24805;55.852;37.644;2023-07-08T11:58:08;2.45;;;1.52;;
39050;SDS011;24805;55.852;37.644;2023-07-08T12:03:37;1.70;;;1.45;;
39050;SDS011;24805;55.852;37.644;2023-07-08T12:08:42;2.20;;;1.45;;
39050;SDS011;24805;55.852;37.644;2023-07-08T12:13:45;3.55;;;1.80;;
39050;SDS011;24805;55.852;37.644;2023-07-08T12:18:47;5.72;;;2.40;;
39050;SDS011;24805;55.852;37.644;2023-07-08T12:23:51;2.72;;;1.85;;
39050;SDS011;24805;55.852;37.644;2023-07-08T12:28:53;4.45;;;2.20;;
39050;SDS011;24805;55.852;37.644;2023-07-08T12:33:55;3.45;;;2.15;;
39050;SDS011;24805;55.852;37.644;2023-07-08T12:38:58;3.78;;;2.17;;
39050;SDS011;24805;55.852;37.644;2023-07-08T12:44:02;4.75;;;2.17;;
39050;SDS011;24805;55.852;37.644;2023-07-08T12:49:04;2.38;;;1.77;;
39050;SDS011;24805;55.852;37.644;2023-07-08T12:54:08;5.15;;;2.72;;
39050;SDS011;24805;55.852;37.644;2023-07-08T12:59:12;3.80;;;2.78;;
39050;SDS011;24805;55.852;37.644;2023-07-08T13:04:20;2.85;;;2.22;;
39050;SDS011;24805;55.852;37.644;2023-07-08T13:09:34;2.67;;;2.03;;
39050;SDS011;24805;55.852;37.644;2023-07-08T13:14:39;4.72;;;1.95;;
39050;SDS011;24805;55.852;37.644;2023-07-08T13:19:45;3.63;;;1.90;;
39050;SDS011;24805;55.852;37.644;2023-07-08T13:24:48;2.78;;;1.58;;
39050;SDS011;24805;55.852;37.644;2023-07-08T13:35:24;3.60;;;2.00;;
39050;SDS011;24805;55.852;37.644;2023-07-08T13:40:29;2.65;;;1.67;;
39050;SDS011;24805;55.852;37.644;2023-07-08T13:45:33;2.80;;;1.75;;
39050;SDS011;24805;55.852;37.644;2023-07-08T13:50:47;2.90;;;1.58;;
39050;SDS011;24805;55.852;37.644;2023-07-08T13:56:21;1.83;;;1.25;;
39050;SDS011;24805;55.852;37.644;2023-07-08T14:01:25;3.53;;;1.50;;
39050;SDS011;24805;55.852;37.644;2023-07-08T14:06:29;4.85;;;1.52;;
39050;SDS011;24805;55.852;37.644;2023-07-08T14:11:35;2.22;;;1.45;;
39050;SDS011;24805;55.852;37.644;2023-07-08T14:16:39;7.53;;;6.22;;
39050;SDS011;24805;55.852;37.644;2023-07-08T14:21:45;3.95;;;2.53;;
39050;SDS011;24805;55.852;37.644;2023-07-08T14:26:47;7.15;;;2.28;;
39050;SDS011;24805;55.852;37.644;2023-07-08T14:31:49;4.35;;;1.90;;
39050;SDS011;24805;55.852;37.644;2023-07-08T14:36:51;5.50;;;1.25;;
39050;SDS011;24805;55.852;37.644;2023-07-08T14:41:54;4.13;;;1.65;;
39050;SDS011;24805;55.852;37.644;2023-07-08T14:46:56;4.47;;;1.70;;
39050;SDS011;24805;55.852;37.644;2023-07-08T14:51:59;3.28;;;1.55;;
39050;SDS011;24805;55.852;37.644;2023-07-08T14:57:02;5.55;;;1.60;;
39050;SDS011;24805;55.852;37.644;2023-07-08T15:02:16;5.13;;;1.75;;
39050;SDS011;24805;55.852;37.644;2023-07-08T15:07:21;4.85;;;1.90;;
39050;SDS011;24805;55.852;37.644;2023-07-08T15:12:23;5.60;;;2.08;;
39050;SDS011;24805;55.852;37.644;2023-07-08T15:17:25;7.25;;;1.90;;
39050;SDS011;24805;55.852;37.644;2023-07-08T15:22:28;5.68;;;2.30;;
39050;SDS011;24805;55.852;37.644;2023-07-08T15:27:30;5.35;;;1.95;;
39050;SDS011;24805;55.852;37.644;2023-07-08T15:32:32;2.60;;;1.67;;
39050;SDS011;24805;55.852;37.644;2023-07-08T15:37:38;5.72;;;1.70;;
39050;SDS011;24805;55.852;37.644;2023-07-08T15:42:41;6.85;;;2.08;;
39050;SDS011;24805;55.852;37.644;2023-07-08T15:47:46;4.90;;;2.00;;
39050;SDS011;24805;55.852;37.644;2023-07-08T15:52:48;4.65;;;2.05;;
39050;SDS011;24805;55.852;37.644;2023-07-08T15:57:54;4.20;;;1.85;;
39050;SDS011;24805;55.852;37.644;2023-07-08T16:03:01;6.03;;;1.98;;
39050;SDS011;24805;55.852;37.644;2023-07-08T16:08:08;6.18;;;2.50;;
39050;SDS011;24805;55.852;37.644;2023-07-08T16:13:10;4.45;;;2.00;;
39050;SDS011;24805;55.852;37.644;2023-07-08T16:18:13;4.28;;;1.92;;
39050;SDS011;24805;55.852;37.644;2023-07-08T16:23:15;7.88;;;2.42;;
39050;SDS011;24805;55.852;37.644;2023-07-08T16:28:28;3.75;;;2.03;;
39050;SDS011;24805;55.852;37.644;2023-07-08T16:33:34;6.53;;;2.60;;
39050;SDS011;24805;55.852;37.644;2023-07-08T16:38:36;4.90;;;2.30;;
39050;SDS011;24805;55.852;37.644;2023-07-08T16:43:38;9.20;;;2.38;;
39050;SDS011;24805;55.852;37.644;2023-07-08T16:48:40;7.47;;;2.38;;
39050;SDS011;24805;55.852;37.644;2023-07-08T16:53:45;8.07;;;2.60;;
39050;SDS011;24805;55.852;37.644;2023-07-08T16:58:47;7.35;;;2.13;;
39050;SDS011;24805;55.852;37.644;2023-07-08T17:03:50;11.23;;;3.50;;
39050;SDS011;24805;55.852;37.644;2023-07-08T17:08:54;9.25;;;2.50;;
39050;SDS011;24805;55.852;37.644;2023-07-08T17:13:56;4.80;;;2.35;;
39050;SDS011;24805;55.852;37.644;2023-07-08T17:18:58;6.50;;;2.38;;
39050;SDS011;24805;55.852;37.644;2023-07-08T17:24:01;4.97;;;2.40;;
39050;SDS011;24805;55.852;37.644;2023-07-08T17:29:03;9.73;;;3.05;;
39050;SDS011;24805;55.852;37.644;2023-07-08T17:34:07;5.00;;;2.67;;
39050;SDS011;24805;55.852;37.644;2023-07-08T17:39:19;8.82;;;2.75;;
39050;SDS011;24805;55.852;37.644;2023-07-08T17:44:21;5.95;;;3.97;;
39050;SDS011;24805;55.852;37.644;2023-07-08T17:49:23;7.57;;;2.92;;
39050;SDS011;24805;55.852;37.644;2023-07-08T17:54:26;4.93;;;2.47;;
39050;SDS011;24805;55.852;37.644;2023-07-08T17:59:32;4.22;;;2.60;;
39050;SDS011;24805;55.852;37.644;2023-07-08T18:04:35;5.57;;;2.58;;
39050;SDS011;24805;55.852;37.644;2023-07-08T18:09:37;6.60;;;2.92;;
39050;SDS011;24805;55.852;37.644;2023-07-08T18:14:39;19.58;;;6.57;;
39050;SDS011;24805;55.852;37.644;2023-07-08T18:19:42;8.35;;;3.35;;
39050;SDS011;24805;55.852;37.644;2023-07-08T18:24:44;8.85;;;3.33;;
39050;SDS011;24805;55.852;37.644;2023-07-08T18:29:46;6.93;;;2.95;;
39050;SDS011;24805;55.852;37.644;2023-07-08T18:34:50;9.23;;;4.43;;
39050;SDS011;24805;55.852;37.644;2023-07-08T18:39:52;12.65;;;4.13;;
39050;SDS011;24805;55.852;37.644;2023-07-08T18:44:54;9.20;;;4.13;;
39050;SDS011;24805;55.852;37.644;2023-07-08T18:49:56;8.23;;;3.92;;
39050;SDS011;24805;55.852;37.644;2023-07-08T18:54:59;8.55;;;4.15;;
39050;SDS011;24805;55.852;37.644;2023-07-08T19:00:01;9.18;;;4.00;;
39050;SDS011;24805;55.852;37.644;2023-07-08T19:05:05;8.07;;;3.60;;
39050;SDS011;24805;55.852;37.644;2023-07-08T19:10:08;8.35;;;5.53;;
39050;SDS011;24805;55.852;37.644;2023-07-08T19:15:21;13.18;;;4.40;;
39050;SDS011;24805;55.852;37.644;2023-07-08T19:20:24;10.95;;;4.70;;
39050;SDS011;24805;55.852;37.644;2023-07-08T19:25:31;10.93;;;4.05;;
39050;SDS011;24805;55.852;37.644;2023-07-08T19:30:37;9.15;;;4.90;;
39050;SDS011;24805;55.852;37.644;2023-07-08T19:35:42;10.77;;;4.55;;
39050;SDS011;24805;55.852;37.644;2023-07-08T19:40:46;11.90;;;4.90;;
39050;SDS011;24805;55.852;37.644;2023-07-08T19:45:51;11.15;;;5.07;;
39050;SDS011;24805;55.852;37.644;2023-07-08T19:50:55;13.85;;;5.18;;
39050;SDS011;24805;55.852;37.644;2023-07-08T19:55:57;14.30;;;5.00;;
39050;SDS011;24805;55.852;37.644;2023-07-08T20:01:00;11.75;;;5.40;;
39050;SDS011;24805;55.852;37.644;2023-07-08T20:06:19;14.23;;;5.40;;
39050;SDS011;24805;55.852;37.644;2023-07-08T20:11:26;13.05;;;5.40;;
39050;SDS011;24805;55.852;37.644;2023-07-08T20:16:28;13.15;;;5.45;;
39050;SDS011;24805;55.852;37.644;2023-07-08T20:21:31;14.05;;;5.28;;
39050;SDS011;24805;55.852;37.644;2023-07-08T20:26:33;12.82;;;5.38;;
39050;SDS011;24805;55.852;37.644;2023-07-08T20:31:37;16.08;;;6.75;;
39050;SDS011;24805;55.852;37.644;2023-07-08T20:36:39;12.13;;;6.03;;
39050;SDS011;24805;55.852;37.644;2023-07-08T20:41:41;10.32;;;5.63;;
39050;SDS011;24805;55.852;37.644;2023-07-08T20:46:44;14.57;;;6.65;;
39050;SDS011;24805;55.852;37.644;2023-07-08T20:51:49;17.10;;;6.60;;
39050;SDS011;24805;55.852;37.644;2023-07-08T20:56:51;12.60;;;7.07;;
39050;SDS011;24805;55.852;37.644;2023-07-08T21:01:54;13.88;;;6.60;;
39050;SDS011;24805;55.852;37.644;2023-07-08T21:06:56;12.13;;;5.93;;
39050;SDS011;24805;55.852;37.644;2023-07-08T21:11:59;12.50;;;6.38;;
39050;SDS011;24805;55.852;37.644;2023-07-08T21:17:01;11.68;;;6.00;;
39050;SDS011;24805;55.852;37.644;2023-07-08T21:22:03;15.98;;;6.85;;
39050;SDS011;24805;55.852;37.644;2023-07-08T21:27:08;13.05;;;6.68;;
39050;SDS011;24805;55.852;37.644;2023-07-08T21:32:21;18.48;;;7.07;;
39050;SDS011;24805;55.852;37.644;2023-07-08T21:37:24;12.90;;;7.22;;
39050;SDS011;24805;55.852;37.644;2023-07-08T21:42:26;12.07;;;6.40;;
39050;SDS011;24805;55.852;37.644;2023-07-08T21:47:30;8.90;;;5.90;;
39050;SDS011;24805;55.852;37.644;2023-07-08T21:52:32;12.43;;;6.88;;
39050;SDS011;24805;55.852;37.644;2023-07-08T21:57:34;11.32;;;6.32;;
39050;SDS011;24805;55.852;37.644;2023-07-08T22:02:46;14.80;;;6.78;;
39050;SDS011;24805;55.852;37.644;2023-07-08T22:07:50;10.50;;;6.30;;
39050;SDS011;24805;55.852;37.644;2023-07-08T22:12:52;9.95;;;6.32;;
39050;SDS011;24805;55.852;37.644;2023-07-08T22:17:55;10.60;;;6.82;;
39050;SDS011;24805;55.852;37.644;2023-07-08T22:23:00;13.65;;;6.90;;
39050;SDS011;24805;55.852;37.644;2023-07-08T22:28:02;10.63;;;6.30;;
39050;SDS011;24805;55.852;37.644;2023-07-08T22:33:04;13.32;;;7.40;;
39050;SDS011;24805;55.852;37.644;2023-07-08T22:38:07;13.05;;;7.22;;
39050;SDS011;24805;55.852;37.644;2023-07-08T22:43:18;12.02;;;7.28;;
39050;SDS011;24805;55.852;37.644;2023-07-08T22:48:28;15.00;;;7.75;;
39050;SDS011;24805;55.852;37.644;2023-07-08T22:53:32;13.75;;;7.13;;
39050;SDS011;24805;55.852;37.644;2023-07-08T22:58:36;13.77;;;7.10;;
39050;SDS011;24805;55.852;37.644;2023-07-08T23:03:38;12.27;;;7.68;;
39050;SDS011;24805;55.852;37.644;2023-07-08T23:08:40;11.80;;;7.30;;
39050;SDS011;24805;55.852;37.644;2023-07-08T23:13:43;10.68;;;6.82;;
39050;SDS011;24805;55.852;37.644;2023-07-08T23:18:48;17.58;;;6.90;;
39050;SDS011;24805;55.852;37.644;2023-07-08T23:23:52;11.55;;;7.85;;
39050;SDS011;24805;55.852;37.644;2023-07-08T23:28:55;12.00;;;6.72;;
39050;SDS011;24805;55.852;37.644;2023-07-08T23:33:59;10.25;;;6.40;;
39050;SDS011;24805;55.852;37.644;2023-07-08T23:39:03;10.65;;;7.32;;
39050;SDS011;24805;55.852;37.644;2023-07-08T23:44:12;14.27;;;7.18;;
39050;SDS011;24805;55.852;37.644;2023-07-08T23:49:21;16.48;;;8.23;;
39050;SDS011;24805;55.852;37.644;2023-07-08T23:54:32;12.85;;;8.15;;
39050;SDS011;24805;55.852;37.644;2023-07-08T23:59:38;12.73;;;8.23;;
